createdAt,value
2022-11-08T00:00:47.799Z,86.53
2022-11-08T00:03:01.858Z,86.44
2022-11-08T00:05:31.536Z,86.42
2022-11-08T00:08:01.778Z,86.56
2022-11-08T00:10:33.317Z,86.74
2022-11-08T00:13:03.369Z,86.65
2022-11-08T00:15:17.263Z,86.72
2022-11-08T00:17:33.063Z,86.83
2022-11-08T00:19:47.096Z,87.28
2022-11-08T00:22:00.580Z,87.41
2022-11-08T00:24:15.098Z,87.58
2022-11-08T00:26:29.428Z,87.82
2022-11-08T00:28:42.652Z,87.95
2022-11-08T00:30:55.862Z,87.90
2022-11-08T00:33:10.943Z,87.87
2022-11-08T00:35:25.245Z,87.90
2022-11-08T00:37:38.560Z,87.94
2022-11-08T00:39:52.151Z,87.60
2022-11-08T00:42:05.958Z,87.44
2022-11-08T00:44:19.124Z,87.39
2022-11-08T00:46:32.841Z,87.23
2022-11-08T00:48:46.584Z,87.19
2022-11-08T00:51:03.902Z,87.16
2022-11-08T00:53:18.084Z,87.25
2022-11-08T00:55:31.334Z,87.25
2022-11-08T00:58:00.845Z,87.49
2022-11-08T01:00:18.419Z,87.41
2022-11-08T01:02:31.738Z,87.34
2022-11-08T01:04:45.560Z,87.42
2022-11-08T01:06:59.078Z,87.51
2022-11-08T01:09:13.955Z,87.67
2022-11-08T01:11:29.138Z,87.62
2022-11-08T01:13:42.619Z,87.32
2022-11-08T01:15:58.844Z,87.51
2022-11-08T01:18:14.597Z,87.57
2022-11-08T01:20:28.209Z,87.42
2022-11-08T01:22:41.849Z,87.44
2022-11-08T01:24:55.848Z,87.38
2022-11-08T01:27:10.116Z,87.25
2022-11-08T01:29:23.506Z,86.89
2022-11-08T01:31:38.362Z,86.85
2022-11-08T01:33:52.526Z,86.96
2022-11-08T01:36:05.907Z,86.85
2022-11-08T01:38:19.999Z,86.94
2022-11-08T01:40:34.975Z,87.23
2022-11-08T01:42:49.076Z,87.27
2022-11-08T01:45:10.774Z,87.17
2022-11-08T01:47:24.794Z,87.27
2022-11-08T01:49:44.594Z,87.02
2022-11-08T01:52:05.171Z,87.11
2022-11-08T01:54:23.135Z,87.31
2022-11-08T01:56:36.976Z,87.38
2022-11-08T01:58:53.888Z,87.33
2022-11-08T02:01:08.523Z,87.26
2022-11-08T02:03:24.430Z,87.15
2022-11-08T02:05:38.022Z,87.22
2022-11-08T02:07:52.518Z,87.10
2022-11-08T02:10:07.070Z,86.99
2022-11-08T02:12:24.434Z,86.91
2022-11-08T02:14:37.961Z,87.01
2022-11-08T02:16:52.251Z,87.06
2022-11-08T02:19:05.762Z,86.62
2022-11-08T02:21:27.636Z,86.61
2022-11-08T02:23:53.034Z,86.81
2022-11-08T02:26:06.464Z,86.97
2022-11-08T02:28:20.782Z,86.87
2022-11-08T02:30:41.610Z,87.02
2022-11-08T02:32:56.876Z,87.02
2022-11-08T02:35:14.240Z,87.13
2022-11-08T02:37:29.123Z,87.19
2022-11-08T02:39:42.439Z,87.20
2022-11-08T02:41:56.576Z,87.23
2022-11-08T02:44:10.748Z,87.36
2022-11-08T02:46:24.205Z,87.60
2022-11-08T02:48:37.398Z,87.54
2022-11-08T02:50:50.755Z,87.68
2022-11-08T02:53:04.189Z,87.88
2022-11-08T02:55:18.164Z,88.17
2022-11-08T02:57:31.405Z,88.27
2022-11-08T02:59:45.049Z,88.25
2022-11-08T03:01:58.401Z,88.32
2022-11-08T03:04:12.186Z,88.60
2022-11-08T03:06:25.537Z,88.76
2022-11-08T03:08:39.819Z,88.86
2022-11-08T03:10:53.145Z,88.86
2022-11-08T03:13:09.187Z,89.00
2022-11-08T03:15:23.279Z,89.15
2022-11-08T03:17:36.578Z,89.14
2022-11-08T03:19:49.777Z,89.21
2022-11-08T03:22:03.534Z,89.11
2022-11-08T03:24:18.276Z,89.25
2022-11-08T03:26:31.766Z,89.30
2022-11-08T03:28:45.003Z,89.11
2022-11-08T03:30:59.056Z,89.22
2022-11-08T03:33:12.385Z,89.08
2022-11-08T03:35:25.750Z,89.14
2022-11-08T03:37:39.026Z,89.08
2022-11-08T03:39:53.101Z,88.95
2022-11-08T03:42:06.610Z,89.02
2022-11-08T03:44:19.936Z,89.19
2022-11-08T03:46:34.071Z,89.13
2022-11-08T03:48:47.767Z,89.27
2022-11-08T03:51:02.023Z,89.00
2022-11-08T03:53:15.223Z,89.02
2022-11-08T03:55:31.810Z,89.13
2022-11-08T03:57:46.153Z,89.02
2022-11-08T04:00:00.206Z,89.04
2022-11-08T04:02:14.039Z,89.28
2022-11-08T04:04:28.573Z,89.21
2022-11-08T04:06:42.670Z,89.19
2022-11-08T04:08:56.100Z,89.03
2022-11-08T04:11:22.738Z,89.01
2022-11-08T04:13:52.325Z,88.99
2022-11-08T04:16:06.589Z,88.77
2022-11-08T04:18:32.771Z,88.63
2022-11-08T04:21:03.802Z,88.64
2022-11-08T04:23:17.466Z,88.87
2022-11-08T04:25:34.966Z,88.94
2022-11-08T04:27:48.509Z,88.89
2022-11-08T04:30:01.745Z,89.15
2022-11-08T04:32:15.008Z,89.42
2022-11-08T04:34:28.266Z,89.34
2022-11-08T04:36:42.576Z,89.41
2022-11-08T04:38:56.710Z,89.43
2022-11-08T04:41:12.717Z,89.57
2022-11-08T04:43:25.998Z,89.51
2022-11-08T04:45:39.426Z,89.44
2022-11-08T04:47:54.092Z,89.69
2022-11-08T04:50:08.534Z,89.71
2022-11-08T04:52:24.873Z,89.84
2022-11-08T04:54:38.250Z,90.11
2022-11-08T04:56:51.610Z,90.00
2022-11-08T04:59:10.819Z,90.13
2022-11-08T05:01:26.661Z,89.97
2022-11-08T05:03:40.896Z,89.87
2022-11-08T05:05:54.591Z,89.82
2022-11-08T05:08:08.247Z,89.97
2022-11-08T05:10:22.089Z,90.19
2022-11-08T05:12:36.378Z,90.04
2022-11-08T05:14:49.745Z,90.04
2022-11-08T05:17:03.101Z,89.98
2022-11-08T05:19:38.205Z,89.84
2022-11-08T05:22:07.815Z,89.84
2022-11-08T05:24:22.937Z,89.92
2022-11-08T05:26:37.742Z,90.10
2022-11-08T05:28:51.173Z,90.15
2022-11-08T05:31:04.631Z,90.29
2022-11-08T05:33:19.470Z,90.36
2022-11-08T05:35:32.783Z,90.56
2022-11-08T05:37:48.769Z,90.76
2022-11-08T05:40:02.083Z,90.68
2022-11-08T05:42:15.487Z,90.61
2022-11-08T05:44:28.780Z,90.66
2022-11-08T05:46:42.046Z,90.71
2022-11-08T05:48:55.673Z,90.60
2022-11-08T05:51:09.038Z,90.48
2022-11-08T05:53:22.555Z,90.70
2022-11-08T05:55:35.716Z,90.47
2022-11-08T05:57:50.308Z,90.32
2022-11-08T06:00:03.548Z,90.45
2022-11-08T06:02:25.616Z,90.35
2022-11-08T06:04:40.126Z,90.58
2022-11-08T06:06:55.753Z,90.49
2022-11-08T06:09:09.157Z,90.43
2022-11-08T06:11:24.924Z,90.34
2022-11-08T06:13:38.482Z,90.22
2022-11-08T06:15:52.027Z,90.23
2022-11-08T06:18:08.113Z,90.10
2022-11-08T06:20:21.709Z,90.02
2022-11-08T06:22:36.501Z,90.05
2022-11-08T06:24:50.030Z,90.08
2022-11-08T06:27:05.372Z,90.21
2022-11-08T06:29:18.749Z,90.29
2022-11-08T06:31:32.106Z,90.09
2022-11-08T06:33:45.776Z,90.25
2022-11-08T06:35:59.642Z,90.34
2022-11-08T06:38:13.631Z,90.38
2022-11-08T06:40:27.304Z,90.39
2022-11-08T06:42:40.723Z,90.45
2022-11-08T06:44:54.124Z,90.38
2022-11-08T06:47:07.579Z,90.42
2022-11-08T06:49:21.251Z,90.67
2022-11-08T06:51:34.781Z,90.61
2022-11-08T06:53:48.448Z,90.48
2022-11-08T06:56:02.803Z,90.45
2022-11-08T06:58:16.714Z,90.37
2022-11-08T07:00:30.913Z,90.50
2022-11-08T07:02:45.595Z,90.47
2022-11-08T07:04:59.005Z,90.62
2022-11-08T07:07:12.705Z,90.73
2022-11-08T07:09:26.096Z,90.87
2022-11-08T07:11:39.351Z,90.89
2022-11-08T07:13:53.521Z,90.97
2022-11-08T07:16:07.251Z,90.91
2022-11-08T07:18:22.313Z,90.94
2022-11-08T07:20:35.835Z,91.01
2022-11-08T07:22:51.342Z,90.99
2022-11-08T07:25:04.795Z,90.93
2022-11-08T07:27:18.157Z,90.93
2022-11-08T07:29:31.647Z,91.09
2022-11-08T07:31:45.799Z,90.65
2022-11-08T07:33:59.093Z,90.59
2022-11-08T07:36:12.869Z,90.68
2022-11-08T07:38:27.320Z,90.98
2022-11-08T07:40:41.024Z,90.93
2022-11-08T07:45:29.290Z,90.56
2022-11-08T07:47:43.236Z,90.54
2022-11-08T07:49:56.472Z,90.50
2022-11-08T07:52:09.990Z,90.46
2022-11-08T07:54:23.435Z,90.54
2022-11-08T07:56:36.740Z,90.54
2022-11-08T07:58:49.971Z,90.76
2022-11-08T08:01:08.199Z,90.96
2022-11-08T08:03:22.930Z,90.95
2022-11-08T08:05:40.048Z,91.08
2022-11-08T08:07:53.407Z,91.07
2022-11-08T08:10:07.068Z,90.97
2022-11-08T08:12:21.550Z,90.95
2022-11-08T08:14:34.936Z,90.88
2022-11-08T08:16:49.180Z,91.01
2022-11-08T08:19:02.533Z,91.15
2022-11-08T08:21:15.917Z,91.31
2022-11-08T08:23:29.337Z,91.42
2022-11-08T08:25:43.771Z,91.41
2022-11-08T08:27:58.681Z,91.65
2022-11-08T08:30:15.961Z,91.82
2022-11-08T08:32:31.690Z,92.09
2022-11-08T08:34:45.111Z,92.29
2022-11-08T08:36:59.051Z,92.19
2022-11-08T08:39:12.378Z,92.42
2022-11-08T08:41:25.882Z,92.75
2022-11-08T08:43:39.124Z,92.79
2022-11-08T08:45:53.460Z,92.92
2022-11-08T08:48:07.343Z,92.99
2022-11-08T08:50:21.123Z,93.00
2022-11-08T08:52:34.407Z,93.08
2022-11-08T08:54:48.202Z,93.11
2022-11-08T08:57:02.164Z,92.91
2022-11-08T09:01:49.230Z,92.34
2022-11-08T09:04:02.502Z,92.36
2022-11-08T09:06:16.319Z,92.44
2022-11-08T09:08:30.075Z,92.55
2022-11-08T09:10:43.859Z,92.43
2022-11-08T09:12:57.858Z,92.33
2022-11-08T09:15:13.309Z,92.47
2022-11-08T09:17:26.605Z,92.43
2022-11-08T09:19:40.018Z,92.43
2022-11-08T09:21:53.447Z,92.37
2022-11-08T09:24:06.846Z,92.52
2022-11-08T09:26:20.139Z,92.38
2022-11-08T09:28:34.499Z,91.97
2022-11-08T09:30:47.785Z,92.04
2022-11-08T09:33:02.585Z,92.02
2022-11-08T09:35:16.220Z,92.13
2022-11-08T09:37:30.373Z,92.24
2022-11-08T09:39:43.609Z,92.34
2022-11-08T09:42:23.583Z,92.28
2022-11-08T09:44:59.071Z,92.38
2022-11-08T09:47:22.621Z,92.58
2022-11-08T09:49:41.367Z,92.62
2022-11-08T09:51:55.702Z,92.76
2022-11-08T09:54:15.741Z,92.98
2022-11-08T09:56:35.172Z,93.21
2022-11-08T09:58:55.482Z,93.09
2022-11-08T10:01:09.009Z,93.32
2022-11-08T10:03:24.953Z,93.27
2022-11-08T10:05:46.861Z,93.27
2022-11-08T10:08:07.332Z,92.87
2022-11-08T10:10:41.453Z,92.82
2022-11-08T10:13:05.118Z,92.83
2022-11-08T10:15:31.238Z,92.81
2022-11-08T10:18:31.149Z,92.89
2022-11-08T10:21:00.709Z,92.90
2022-11-08T10:23:24.361Z,93.01
2022-11-08T10:25:46.661Z,93.05
2022-11-08T10:28:03.120Z,93.24
2022-11-08T10:30:24.488Z,93.30
2022-11-08T10:32:40.348Z,93.34
2022-11-08T10:35:01.994Z,93.24
2022-11-08T10:37:20.276Z,93.13
2022-11-08T10:39:37.916Z,93.14
2022-11-08T10:41:59.699Z,93.26
2022-11-08T10:44:22.115Z,93.17
2022-11-08T10:46:44.602Z,92.97
2022-11-08T10:49:00.505Z,92.91
2022-11-08T10:51:14.226Z,93.15
2022-11-08T10:53:31.368Z,93.31
2022-11-08T10:55:53.926Z,93.54
2022-11-08T10:58:07.557Z,93.50
2022-11-08T11:00:33.615Z,93.48
2022-11-08T11:02:48.649Z,93.33
2022-11-08T11:05:30.527Z,93.41
2022-11-08T11:07:44.836Z,93.80
2022-11-08T11:09:58.321Z,94.01
2022-11-08T11:12:17.191Z,94.06
2022-11-08T11:14:30.516Z,93.92
2022-11-08T11:16:52.264Z,93.86
2022-11-08T11:19:07.891Z,93.95
2022-11-08T11:21:24.123Z,93.82
2022-11-08T11:23:46.917Z,93.96
2022-11-08T11:26:00.398Z,94.13
2022-11-08T11:28:19.789Z,94.15
2022-11-08T11:30:37.969Z,94.24
2022-11-08T11:33:04.627Z,94.30
2022-11-08T11:35:21.795Z,94.29
2022-11-08T11:37:44.489Z,94.40
2022-11-08T11:39:58.743Z,94.38
2022-11-08T11:42:44.975Z,94.23
2022-11-08T11:45:05.695Z,94.50
2022-11-08T11:47:25.938Z,94.34
2022-11-08T11:49:42.276Z,94.40
2022-11-08T11:51:58.143Z,94.40
2022-11-08T11:54:15.728Z,94.36
2022-11-08T11:56:52.001Z,94.45
2022-11-08T11:59:35.660Z,94.58
2022-11-08T12:02:10.580Z,94.71
2022-11-08T12:04:48.494Z,94.65
2022-11-08T12:07:11.443Z,94.73
2022-11-08T12:09:41.872Z,94.68
2022-11-08T12:12:07.682Z,94.53
2022-11-08T12:14:45.687Z,94.63
2022-11-08T12:17:10.769Z,94.42
2022-11-08T12:19:41.320Z,94.59
2022-11-08T12:22:02.720Z,94.58
2022-11-08T12:24:50.368Z,94.59
2022-11-08T12:27:13.518Z,94.65
2022-11-08T12:29:41.386Z,94.70
2022-11-08T12:32:07.703Z,94.53
2022-11-08T12:34:34.898Z,94.60
2022-11-08T12:36:57.174Z,94.38
2022-11-08T12:39:23.532Z,94.30
2022-11-08T12:41:45.603Z,94.38
2022-11-08T12:44:25.212Z,94.30
2022-11-08T12:46:48.231Z,94.33
2022-11-08T12:49:18.284Z,94.14
2022-11-08T12:51:42.239Z,94.26
2022-11-08T12:54:10.835Z,94.21
2022-11-08T12:56:30.913Z,94.24
2022-11-08T12:58:49.050Z,94.40
2022-11-08T13:01:06.858Z,94.34
2022-11-08T13:03:50.606Z,94.33
2022-11-08T13:06:11.820Z,94.37
2022-11-08T13:08:30.263Z,94.37
2022-11-08T13:10:50.921Z,94.57
2022-11-08T13:13:23.359Z,94.76
2022-11-08T13:15:36.616Z,94.94
2022-11-08T13:18:37.370Z,95.00
2022-11-08T13:20:51.441Z,95.25
2022-11-08T13:23:16.033Z,95.29
2022-11-08T13:25:46.150Z,95.23
2022-11-08T13:28:00.141Z,95.11
2022-11-08T13:30:40.638Z,95.24
2022-11-08T13:33:01.598Z,95.05
2022-11-08T13:35:24.324Z,95.04
2022-11-08T13:37:57.881Z,95.03
2022-11-08T13:40:38.948Z,95.14
2022-11-08T13:43:22.895Z,95.05
2022-11-08T13:45:41.393Z,94.98
2022-11-08T13:48:03.859Z,94.94
2022-11-08T13:50:49.732Z,94.81
2022-11-08T13:53:14.037Z,94.76
2022-11-08T13:55:51.904Z,94.73
2022-11-08T13:58:06.492Z,94.68
2022-11-08T14:00:46.743Z,94.89
2022-11-08T14:03:00.421Z,94.81
2022-11-08T14:05:35.841Z,94.60
2022-11-08T14:07:53.972Z,94.68
2022-11-08T14:10:21.277Z,94.46
2022-11-08T14:12:40.705Z,94.37
2022-11-08T14:15:00.517Z,94.23
2022-11-08T14:17:37.661Z,94.33
2022-11-08T14:19:52.723Z,94.53
2022-11-08T14:22:06.557Z,94.13
2022-11-08T14:24:25.194Z,94.14
2022-11-08T14:26:48.982Z,94.20
2022-11-08T14:29:06.475Z,94.45
2022-11-08T14:31:31.939Z,94.39
2022-11-08T14:33:49.274Z,94.56
2022-11-08T14:36:05.684Z,94.22
2022-11-08T14:38:21.183Z,93.92
2022-11-08T14:40:36.260Z,93.93
2022-11-08T14:42:51.515Z,93.76
2022-11-08T14:45:05.286Z,93.45
2022-11-08T14:47:32.316Z,93.43
2022-11-08T14:49:45.848Z,93.36
2022-11-08T14:52:19.465Z,93.29
2022-11-08T14:54:40.273Z,92.88
2022-11-08T14:56:54.412Z,93.08
2022-11-08T14:59:10.965Z,92.77
2022-11-08T15:01:26.965Z,92.75
2022-11-08T15:03:41.811Z,92.64
2022-11-08T15:06:02.550Z,92.46
2022-11-08T15:08:26.354Z,92.71
2022-11-08T15:10:40.004Z,92.58
2022-11-08T15:12:54.114Z,92.39
2022-11-08T15:15:08.986Z,92.44
2022-11-08T15:17:35.981Z,92.59
2022-11-08T15:19:50.061Z,92.79
2022-11-08T15:22:04.587Z,92.98
2022-11-08T15:24:20.958Z,93.40
2022-11-08T15:26:38.436Z,93.45
2022-11-08T15:29:02.785Z,93.43
2022-11-08T15:31:20.009Z,93.50
2022-11-08T15:33:37.825Z,93.52
2022-11-08T15:35:53.157Z,93.57
2022-11-08T15:38:24.403Z,93.67
2022-11-08T15:40:39.320Z,93.62
2022-11-08T15:42:54.361Z,93.77
2022-11-08T15:45:10.388Z,93.84
2022-11-08T15:47:42.560Z,93.89
2022-11-08T15:49:55.948Z,93.83
2022-11-08T15:52:09.243Z,93.97
2022-11-08T15:54:23.212Z,94.03
2022-11-08T15:56:36.697Z,94.15
2022-11-08T15:58:50.503Z,94.16
2022-11-08T16:01:05.901Z,94.26
2022-11-08T16:03:19.818Z,94.48
2022-11-08T16:05:35.033Z,94.46
2022-11-08T16:07:48.442Z,94.52
2022-11-08T16:10:01.734Z,94.51
2022-11-08T16:12:18.942Z,94.42
2022-11-08T16:14:32.345Z,94.40
2022-11-08T16:16:45.829Z,94.48
2022-11-08T16:18:59.924Z,94.65
2022-11-08T16:21:16.645Z,94.86
2022-11-08T16:23:30.156Z,94.94
2022-11-08T16:25:45.639Z,94.66
2022-11-08T16:28:05.946Z,94.46
2022-11-08T16:30:23.665Z,94.35
2022-11-08T16:32:36.940Z,94.39
2022-11-08T16:34:51.155Z,94.54
2022-11-08T16:37:05.357Z,94.48
2022-11-08T16:39:21.616Z,94.53
2022-11-08T16:41:40.116Z,94.26
2022-11-08T16:43:57.672Z,94.43
2022-11-08T16:46:12.423Z,94.55
2022-11-08T16:48:29.165Z,94.44
2022-11-08T16:50:42.631Z,94.45
2022-11-08T16:52:56.200Z,94.07
2022-11-08T16:55:16.513Z,93.59
2022-11-08T16:57:35.219Z,93.92
2022-11-08T16:59:48.934Z,93.74
2022-11-08T17:02:03.095Z,93.66
2022-11-08T17:04:19.341Z,93.19
2022-11-08T17:06:32.679Z,93.02
2022-11-08T17:08:46.089Z,92.42
2022-11-08T17:10:59.453Z,91.74
2022-11-08T17:13:13.259Z,91.03
2022-11-08T17:15:29.981Z,91.19
2022-11-08T17:17:44.275Z,90.18
2022-11-08T17:19:57.601Z,90.69
2022-11-08T17:22:11.816Z,90.44
2022-11-08T17:24:26.087Z,89.80
2022-11-08T17:26:39.833Z,89.29
2022-11-08T17:28:53.045Z,88.29
2022-11-08T17:31:14.985Z,88.13
2022-11-08T17:33:28.455Z,87.13
2022-11-08T17:35:44.312Z,86.53
2022-11-08T17:37:57.852Z,86.06
2022-11-08T17:40:12.986Z,86.41
2022-11-08T17:42:26.378Z,86.41
2022-11-08T17:44:39.864Z,86.07
2022-11-08T17:46:53.134Z,86.02
2022-11-08T17:49:06.573Z,85.88
2022-11-08T17:51:20.234Z,85.61
2022-11-08T17:53:33.896Z,84.47
2022-11-08T17:55:47.115Z,84.66
2022-11-08T17:58:01.604Z,84.80
2022-11-08T18:00:19.379Z,84.77
2022-11-08T18:02:32.933Z,84.36
2022-11-08T18:04:46.377Z,84.59
2022-11-08T18:07:00.573Z,83.51
2022-11-08T18:09:14.555Z,83.96
2022-11-08T18:11:27.956Z,83.65
2022-11-08T18:13:41.901Z,83.49
2022-11-08T18:15:55.548Z,83.72
2022-11-08T18:18:09.012Z,83.93
2022-11-08T18:20:22.366Z,83.89
2022-11-08T18:22:36.533Z,84.14
2022-11-08T18:24:50.794Z,84.46
2022-11-08T18:27:04.310Z,83.49
2022-11-08T18:29:18.763Z,83.69
2022-11-08T18:31:34.129Z,83.75
2022-11-08T18:33:48.326Z,83.63
2022-11-08T18:36:05.627Z,83.64
2022-11-08T18:38:20.405Z,83.31
2022-11-08T18:40:33.679Z,83.13
2022-11-08T18:42:46.895Z,83.06
2022-11-08T18:45:01.651Z,82.59
2022-11-08T18:47:14.895Z,82.57
2022-11-08T18:49:28.299Z,82.48
2022-11-08T18:51:42.755Z,81.92
2022-11-08T18:53:56.412Z,81.64
2022-11-08T18:56:10.774Z,81.42
2022-11-08T18:58:24.888Z,81.66
2022-11-08T19:00:39.026Z,81.86
2022-11-08T19:02:52.479Z,81.28
2022-11-08T19:05:06.115Z,80.72
2022-11-08T19:07:19.799Z,81.15
2022-11-08T19:09:33.165Z,80.78
2022-11-08T19:11:46.557Z,80.87
2022-11-08T19:14:00.124Z,80.73
2022-11-08T19:16:16.165Z,80.78
2022-11-08T19:18:29.725Z,80.62
2022-11-08T19:20:43.077Z,80.31
2022-11-08T19:22:59.661Z,79.93
2022-11-08T19:25:32.377Z,79.41
2022-11-08T19:27:45.594Z,79.96
2022-11-08T19:30:01.460Z,79.66
2022-11-08T19:32:15.812Z,80.19
2022-11-08T19:34:29.108Z,80.11
2022-11-08T19:36:44.772Z,79.64
2022-11-08T19:38:59.683Z,79.15
2022-11-08T19:41:14.435Z,78.09
2022-11-08T19:43:27.704Z,77.41
2022-11-08T19:45:40.980Z,77.62
2022-11-08T19:47:54.375Z,77.54
2022-11-08T19:50:07.888Z,76.82
2022-11-08T19:52:22.156Z,76.10
2022-11-08T19:54:35.543Z,75.53
2022-11-08T19:57:05.481Z,76.37
2022-11-08T19:59:19.482Z,76.36
2022-11-08T20:01:37.349Z,76.50
2022-11-08T20:03:51.619Z,75.88
2022-11-08T20:06:04.837Z,76.18
2022-11-08T20:08:18.313Z,75.70
2022-11-08T20:10:32.222Z,74.60
2022-11-08T20:12:45.488Z,75.10
2022-11-08T20:14:59.281Z,74.65
2022-11-08T20:17:12.806Z,74.30
2022-11-08T20:19:28.444Z,75.07
2022-11-08T20:21:43.445Z,75.68
2022-11-08T20:23:57.374Z,75.77
2022-11-08T20:26:11.677Z,75.53
2022-11-08T20:28:25.670Z,75.21
2022-11-08T20:30:40.788Z,75.87
2022-11-08T20:32:54.164Z,75.80
2022-11-08T20:35:08.680Z,75.33
2022-11-08T20:37:22.758Z,74.95
2022-11-08T20:39:37.173Z,75.57
2022-11-08T20:41:51.514Z,75.49
2022-11-08T20:44:06.896Z,74.50
2022-11-08T20:46:21.598Z,74.26
2022-11-08T20:48:36.034Z,74.03
2022-11-08T20:50:50.441Z,74.91
2022-11-08T20:53:03.830Z,74.92
2022-11-08T20:55:17.503Z,74.83
2022-11-08T20:57:31.013Z,74.49
2022-11-08T20:59:44.417Z,74.23
2022-11-08T21:01:59.647Z,74.61
2022-11-08T21:04:14.236Z,73.95
2022-11-08T21:06:35.634Z,73.63
2022-11-08T21:08:59.041Z,73.61
2022-11-08T21:11:16.230Z,72.99
2022-11-08T21:13:32.031Z,73.47
2022-11-08T21:15:46.507Z,73.18
2022-11-08T21:17:59.778Z,73.15
2022-11-08T21:20:14.806Z,72.76
2022-11-08T21:22:28.277Z,72.83
2022-11-08T21:24:41.516Z,73.04
2022-11-08T21:26:54.709Z,72.20
2022-11-08T21:29:08.248Z,72.53
2022-11-08T21:31:22.367Z,72.35
2022-11-08T21:33:35.926Z,73.11
2022-11-08T21:35:51.413Z,73.63
2022-11-08T21:38:06.431Z,73.82
2022-11-08T21:40:19.957Z,72.78
2022-11-08T21:42:36.638Z,72.62
2022-11-08T21:44:52.523Z,72.93
2022-11-08T21:47:06.822Z,72.32
2022-11-08T21:49:20.488Z,71.97
2022-11-08T21:51:33.881Z,72.77
2022-11-08T21:53:54.113Z,71.74
2022-11-08T21:56:09.135Z,70.61
2022-11-08T21:58:22.872Z,71.33
2022-11-08T22:00:37.023Z,71.68
2022-11-08T22:02:50.635Z,71.70
2022-11-08T22:05:04.431Z,72.29
2022-11-08T22:07:17.677Z,72.15
2022-11-08T22:09:30.993Z,71.62
2022-11-08T22:11:44.232Z,70.97
2022-11-08T22:13:57.471Z,70.76
2022-11-08T22:16:12.525Z,70.55
2022-11-08T22:18:43.539Z,70.95
2022-11-08T22:21:15.456Z,70.78
2022-11-08T22:23:29.090Z,70.79
2022-11-08T22:25:42.285Z,70.72
2022-11-08T22:27:55.673Z,69.78
2022-11-08T22:30:15.480Z,70.28
2022-11-08T22:32:30.832Z,69.87
2022-11-08T22:34:45.354Z,69.87
2022-11-08T22:36:58.582Z,70.11
2022-11-08T22:39:13.294Z,70.38
2022-11-08T22:41:27.305Z,70.73
2022-11-08T22:43:41.245Z,70.38
2022-11-08T22:45:54.512Z,70.18
2022-11-08T22:48:09.028Z,70.51
2022-11-08T22:50:23.552Z,70.60
2022-11-08T22:52:37.699Z,69.45
2022-11-08T22:54:51.101Z,69.78
2022-11-08T22:57:07.081Z,69.89
2022-11-08T22:59:20.889Z,69.42
2022-11-08T23:01:34.283Z,69.86
2022-11-08T23:03:49.910Z,69.95
2022-11-08T23:06:03.375Z,69.50
2022-11-08T23:08:16.593Z,69.40
2022-11-08T23:10:30.986Z,69.16
2022-11-08T23:13:01.584Z,68.10
2022-11-08T23:15:33.465Z,68.41
2022-11-08T23:17:48.663Z,69.63
2022-11-08T23:20:19.749Z,69.31
2022-11-08T23:22:49.495Z,69.56
2022-11-08T23:25:02.761Z,69.24
2022-11-08T23:27:34.029Z,69.08
2022-11-08T23:30:03.535Z,69.26
2022-11-08T23:32:18.348Z,69.15
2022-11-08T23:34:31.660Z,68.22
2022-11-08T23:36:45.006Z,68.74
2022-11-08T23:38:59.730Z,69.02
2022-11-08T23:41:29.462Z,69.05
2022-11-08T23:43:59.824Z,69.36
2022-11-08T23:46:15.003Z,69.25
2022-11-08T23:48:30.315Z,69.03
2022-11-08T23:50:43.701Z,69.28
2022-11-08T23:52:56.948Z,68.77
2022-11-08T23:55:11.164Z,68.83
2022-11-08T23:57:24.387Z,69.15
2022-11-08T23:59:37.634Z,69.46
